Time;durP1;ratioP1;P1;durP2;ratioP2;P2;SDS_P1;SDS_P2;PMS_P1;PMS_P2;Temp;Humidity;BMP_temperature;BMP_pressure;BME280_temperature;BME280_humidity;BME280_pressure;Samples;Min_cycle;Max_cycle;Signal;HPM_P1;HPM_P2
2023/12/20 00:00:22;;;;;;;8.50;7.60;;;7.10;99.90;;;;;;5046273;28;20248;-68
2023/12/20 00:02:49;;;;;;;8.30;7.27;;;7.10;99.90;;;;;;5045799;28;20213;-68
2023/12/20 00:05:16;;;;;;;7.20;6.50;;;7.20;99.90;;;;;;5045910;28;20291;-68
2023/12/20 00:07:43;;;;;;;7.57;6.70;;;7.10;99.90;;;;;;5047765;28;20323;-69
2023/12/20 00:10:12;;;;;;;7.40;6.70;;;7.10;99.90;;;;;;5050766;28;20236;-68
2023/12/20 00:12:41;;;;;;;7.40;6.80;;;7.20;99.90;;;;;;5049558;28;20662;-68
2023/12/20 00:15:08;;;;;;;7.20;6.50;;;7.20;99.90;;;;;;5049651;28;20215;-68
2023/12/20 00:17:35;;;;;;;7.10;6.40;;;7.20;99.90;;;;;;5049667;28;20646;-68
2023/12/20 00:20:02;;;;;;;6.93;6.27;;;7.20;99.90;;;;;;5049291;28;20212;-68
2023/12/20 00:22:29;;;;;;;7.70;7.00;;;7.10;99.90;;;;;;5049986;28;20630;-68
2023/12/20 00:24:56;;;;;;;7.70;7.00;;;7.20;99.90;;;;;;5048760;28;20244;-68
2023/12/20 00:27:23;;;;;;;7.90;7.03;;;7.20;99.90;;;;;;5048699;28;20244;-68
2023/12/20 00:29:51;;;;;;;7.50;6.83;;;7.20;99.90;;;;;;5049292;28;20215;-68
2023/12/20 00:32:19;;;;;;;7.47;6.60;;;7.20;99.90;;;;;;5048908;28;20585;-68
2023/12/20 00:34:46;;;;;;;7.63;6.93;;;7.10;99.90;;;;;;5049776;28;20232;-68
2023/12/20 00:37:13;;;;;;;7.23;6.60;;;7.10;99.90;;;;;;5050032;28;20242;-68
2023/12/20 00:39:40;;;;;;;7.30;6.60;;;7.20;99.90;;;;;;5042083;28;20308;-69
2023/12/20 00:42:06;;;;;;;6.93;6.23;;;7.20;99.90;;;;;;5037954;28;20304;-68
2023/12/20 00:44:33;;;;;;;7.37;6.73;;;7.20;99.90;;;;;;5049806;28;20386;-69
2023/12/20 00:47:02;;;;;;;6.93;6.33;;;7.20;99.90;;;;;;5049362;28;20214;-69
2023/12/20 00:49:28;;;;;;;6.97;6.33;;;7.20;99.90;;;;;;5048156;28;20244;-69
2023/12/20 00:51:55;;;;;;;7.70;7.00;;;7.20;99.90;;;;;;5029750;28;20427;-69
2023/12/20 00:54:22;;;;;;;7.60;6.90;;;7.20;99.90;;;;;;5029453;28;20675;-69
2023/12/20 00:56:49;;;;;;;7.53;6.83;;;7.20;99.90;;;;;;5029413;28;20209;-68
2023/12/20 00:59:17;;;;;;;7.30;6.60;;;7.10;99.90;;;;;;5046208;28;20203;-68
2023/12/20 01:01:44;;;;;;;6.90;6.30;;;7.20;99.90;;;;;;5049193;28;20250;-68
2023/12/20 01:04:12;;;;;;;7.60;6.80;;;7.20;99.90;;;;;;5047640;28;20576;-68
2023/12/20 01:06:39;;;;;;;7.50;6.83;;;7.20;99.90;;;;;;5068649;28;20294;-69
2023/12/20 01:09:06;;;;;;;8.00;7.20;;;7.20;99.90;;;;;;5060177;28;20702;-69
2023/12/20 01:11:32;;;;;;;7.57;6.87;;;7.20;99.90;;;;;;5048696;28;20214;-69
2023/12/20 01:13:59;;;;;;;7.67;6.97;;;7.20;99.90;;;;;;5048027;28;20295;-69
2023/12/20 01:16:26;;;;;;;7.97;6.87;;;7.20;99.90;;;;;;5048909;28;20303;-69
2023/12/20 01:18:53;;;;;;;7.03;6.43;;;7.20;99.90;;;;;;5048028;28;20207;-69
2023/12/20 01:21:21;;;;;;;7.60;6.90;;;7.20;99.90;;;;;;5049080;28;20568;-69
2023/12/20 01:23:48;;;;;;;8.50;7.60;;;7.20;99.90;;;;;;5048743;28;20208;-68
2023/12/20 01:26:16;;;;;;;8.03;7.23;;;7.20;99.90;;;;;;5048766;28;20262;-69
2023/12/20 01:28:43;;;;;;;7.53;6.83;;;7.20;99.90;;;;;;5040989;28;20225;-69
2023/12/20 01:31:10;;;;;;;7.53;6.83;;;7.20;99.90;;;;;;5028536;28;20200;-69
2023/12/20 01:33:37;;;;;;;7.20;6.60;;;7.20;99.90;;;;;;5028568;28;20216;-69
2023/12/20 01:36:04;;;;;;;7.57;6.73;;;7.20;99.90;;;;;;5028628;28;20205;-69
2023/12/20 01:38:33;;;;;;;6.87;6.23;;;7.20;99.90;;;;;;5028742;28;20248;-68
2023/12/20 01:41:00;;;;;;;7.77;7.00;;;7.20;99.90;;;;;;5046776;28;20232;-68
2023/12/20 01:43:27;;;;;;;7.47;6.80;;;7.30;99.90;;;;;;5045550;28;20200;-68
2023/12/20 01:45:56;;;;;;;9.67;6.37;;;7.10;99.90;;;;;;5031233;28;20299;-68
2023/12/20 01:48:23;;;;;;;6.67;6.07;;;7.10;99.90;;;;;;5048165;28;20755;-68
2023/12/20 01:50:50;;;;;;;7.07;6.47;;;7.10;99.90;;;;;;5048005;28;20667;-68
2023/12/20 01:53:17;;;;;;;7.33;6.73;;;7.10;99.90;;;;;;5048094;28;20200;-68
2023/12/20 01:55:46;;;;;;;7.67;6.90;;;7.20;99.90;;;;;;5048182;28;20302;-68
2023/12/20 01:58:14;;;;;;;7.93;7.10;;;7.20;99.90;;;;;;5047900;28;20219;-69
2023/12/20 02:00:41;;;;;;;7.93;7.03;;;7.20;99.90;;;;;;5046958;28;20685;-69
2023/12/20 02:03:09;;;;;;;7.90;7.13;;;7.20;99.90;;;;;;5034438;28;20213;-68
2023/12/20 02:05:37;;;;;;;7.90;7.20;;;7.20;99.90;;;;;;5038311;28;20303;-68
2023/12/20 02:08:05;;;;;;;7.43;6.63;;;7.20;99.90;;;;;;5047426;28;20710;-69
2023/12/20 02:10:32;;;;;;;7.60;6.90;;;7.20;99.90;;;;;;5043343;28;20207;-68
2023/12/20 02:13:01;;;;;;;8.07;7.27;;;7.20;99.90;;;;;;5038948;28;20300;-68
2023/12/20 02:15:27;;;;;;;8.23;7.43;;;7.20;99.90;;;;;;5047556;28;20298;-69
2023/12/20 02:17:55;;;;;;;9.00;7.53;;;7.20;99.90;;;;;;5047969;28;20572;-68
2023/12/20 02:20:22;;;;;;;8.17;7.37;;;7.10;99.90;;;;;;5047722;28;20207;-69
2023/12/20 02:22:50;;;;;;;8.47;7.53;;;7.10;99.90;;;;;;5038140;28;20639;-69
2023/12/20 02:25:17;;;;;;;8.37;7.50;;;7.20;99.90;;;;;;5040795;28;20774;-69
2023/12/20 02:27:44;;;;;;;8.93;8.03;;;7.20;99.90;;;;;;5047767;28;20210;-69
2023/12/20 02:30:11;;;;;;;8.77;7.87;;;7.10;99.90;;;;;;5046451;28;20766;-69
2023/12/20 02:32:38;;;;;;;8.87;7.97;;;7.20;99.90;;;;;;5039486;28;20612;-69
2023/12/20 02:35:06;;;;;;;9.57;7.83;;;7.20;99.90;;;;;;5027310;28;20243;-69
2023/12/20 02:37:34;;;;;;;8.13;7.33;;;7.20;99.90;;;;;;5027756;28;20291;-69
2023/12/20 02:40:04;;;;;;;9.00;7.97;;;7.20;99.90;;;;;;5037250;28;20220;-69
2023/12/20 02:42:31;;;;;;;9.20;7.90;;;7.10;99.90;;;;;;5046924;28;20646;-69
2023/12/20 02:44:57;;;;;;;7.93;7.13;;;7.20;99.90;;;;;;5046800;28;21138;-69
2023/12/20 02:47:24;;;;;;;8.40;7.03;;;7.20;99.90;;;;;;5047483;28;20319;-69
2023/12/20 02:49:52;;;;;;;8.63;7.20;;;7.20;99.90;;;;;;5046388;28;20258;-69
2023/12/20 02:52:19;;;;;;;7.67;6.87;;;7.20;99.90;;;;;;5047284;28;20885;-69
2023/12/20 02:54:46;;;;;;;7.50;6.67;;;7.20;99.90;;;;;;5042097;28;20295;-68
2023/12/20 02:57:14;;;;;;;8.27;6.70;;;7.20;99.90;;;;;;5050449;28;20218;-68
2023/12/20 02:59:41;;;;;;;7.20;6.50;;;7.20;99.90;;;;;;5062624;28;20551;-68
2023/12/20 03:02:08;;;;;;;6.60;5.83;;;7.20;99.90;;;;;;5046453;28;20211;-69
2023/12/20 03:04:35;;;;;;;6.30;5.67;;;7.20;99.90;;;;;;5046831;28;20212;-68
2023/12/20 03:07:02;;;;;;;9.07;5.90;;;7.20;99.90;;;;;;5046674;28;20292;-69
2023/12/20 03:09:29;;;;;;;6.83;5.20;;;7.20;99.90;;;;;;5043610;28;20754;-69
2023/12/20 03:11:55;;;;;;;7.70;4.73;;;7.10;99.90;;;;;;5042843;28;20717;-70
2023/12/20 03:14:24;;;;;;;7.73;5.10;;;7.20;99.90;;;;;;5046398;28;20877;-69
2023/12/20 03:16:51;;;;;;;6.90;4.60;;;7.10;99.90;;;;;;5046976;28;20295;-68
2023/12/20 03:19:19;;;;;;;5.20;4.20;;;7.10;99.90;;;;;;5045293;28;20957;-68
2023/12/20 03:21:46;;;;;;;6.60;4.50;;;7.10;99.90;;;;;;5026966;28;20240;-69
2023/12/20 03:24:13;;;;;;;6.60;3.80;;;7.10;99.90;;;;;;5026146;28;20766;-69
2023/12/20 03:26:39;;;;;;;4.53;3.73;;;7.10;99.90;;;;;;5027089;28;20312;-69
2023/12/20 03:29:06;;;;;;;8.50;3.73;;;7.10;99.90;;;;;;5039676;28;20234;-69
2023/12/20 03:31:35;;;;;;;5.10;3.17;;;7.10;99.90;;;;;;5027367;28;20208;-70
2023/12/20 03:34:01;;;;;;;5.67;3.40;;;7.10;99.90;;;;;;5026198;28;20865;-69
2023/12/20 03:36:28;;;;;;;5.73;3.17;;;7.10;99.90;;;;;;5026948;28;20288;-69
2023/12/20 03:38:55;;;;;;;6.30;3.40;;;7.10;99.90;;;;;;5028914;28;20296;-69
2023/12/20 03:41:22;;;;;;;4.53;2.80;;;7.10;99.90;;;;;;5043020;28;20310;-69
2023/12/20 03:43:49;;;;;;;5.13;3.00;;;7.10;99.90;;;;;;5050642;28;20214;-69
2023/12/20 03:46:16;;;;;;;7.37;2.97;;;7.10;99.90;;;;;;5050607;28;20298;-69
2023/12/20 03:48:44;;;;;;;8.30;2.97;;;7.10;99.90;;;;;;5050146;28;20207;-69
2023/12/20 03:51:11;;;;;;;9.20;3.10;;;7.10;99.90;;;;;;5045608;28;20315;-68
2023/12/20 03:53:40;;;;;;;5.47;2.63;;;7.10;99.90;;;;;;5055113;28;20257;-68
2023/12/20 03:56:07;;;;;;;4.67;2.53;;;7.10;99.90;;;;;;5070183;28;20210;-68
2023/12/20 03:58:34;;;;;;;7.07;3.00;;;7.10;99.90;;;;;;5056344;28;20294;-68
2023/12/20 04:01:01;;;;;;;4.40;2.50;;;7.10;99.90;;;;;;5049577;28;20295;-69
2023/12/20 04:03:28;;;;;;;4.70;2.70;;;7.00;99.90;;;;;;5050049;28;20250;-68
2023/12/20 04:05:56;;;;;;;5.43;2.37;;;7.10;99.90;;;;;;5049919;28;20208;-69
2023/12/20 04:08:23;;;;;;;5.60;2.30;;;7.00;99.90;;;;;;5040541;28;21051;-69
2023/12/20 04:10:50;;;;;;;5.83;2.53;;;7.00;99.90;;;;;;5043001;28;20717;-69
2023/12/20 04:13:17;;;;;;;3.97;2.30;;;7.00;99.90;;;;;;5050353;28;20789;-69
2023/12/20 04:15:44;;;;;;;4.40;2.13;;;7.00;99.90;;;;;;5049891;28;20763;-69
2023/12/20 04:18:11;;;;;;;6.33;2.20;;;7.00;99.90;;;;;;5049324;28;20654;-69
2023/12/20 04:20:37;;;;;;;5.10;2.03;;;7.00;99.90;;;;;;5038423;28;20819;-69
2023/12/20 04:23:06;;;;;;;6.00;2.30;;;6.90;99.90;;;;;;5029677;28;20205;-69
2023/12/20 04:25:33;;;;;;;6.20;2.10;;;6.90;99.90;;;;;;5030188;28;20216;-69
2023/12/20 04:27:59;;;;;;;7.93;2.33;;;6.90;99.90;;;;;;5030449;28;20292;-69
2023/12/20 04:30:26;;;;;;;5.67;2.07;;;6.90;99.90;;;;;;5030356;28;20331;-69
2023/12/20 04:32:53;;;;;;;4.83;2.20;;;6.80;99.90;;;;;;5029853;28;20228;-68
2023/12/20 04:35:20;;;;;;;5.40;2.03;;;6.80;99.90;;;;;;5036576;28;20239;-69
2023/12/20 04:37:49;;;;;;;7.43;2.40;;;6.80;99.90;;;;;;5049829;28;20247;-69
2023/12/20 04:40:17;;;;;;;6.20;1.83;;;6.80;99.90;;;;;;5046914;28;20219;-69
2023/12/20 04:42:44;;;;;;;4.93;2.20;;;6.70;99.90;;;;;;5049280;28;20300;-69
2023/12/20 04:45:12;;;;;;;4.10;2.10;;;6.70;99.90;;;;;;5049351;28;20216;-68
2023/12/20 04:47:39;;;;;;;7.23;2.30;;;6.60;99.90;;;;;;5049375;28;20208;-68
2023/12/20 04:50:08;;;;;;;4.63;2.00;;;6.60;99.90;;;;;;5048659;28;20259;-69
2023/12/20 04:52:35;;;;;;;4.60;1.97;;;6.60;99.90;;;;;;5048381;28;20327;-69
2023/12/20 04:55:01;;;;;;;6.47;2.00;;;6.50;99.90;;;;;;5033555;28;20205;-69
2023/12/20 04:57:30;;;;;;;5.60;1.80;;;6.50;99.90;;;;;;5029115;28;20308;-69
2023/12/20 04:59:56;;;;;;;2.83;1.60;;;6.50;99.90;;;;;;5034056;28;20717;-69
2023/12/20 05:02:23;;;;;;;5.70;1.80;;;6.50;99.90;;;;;;5049409;28;20283;-69
2023/12/20 05:04:50;;;;;;;4.20;1.97;;;6.50;99.90;;;;;;5049009;28;20299;-69
2023/12/20 05:07:17;;;;;;;4.27;1.90;;;6.40;99.90;;;;;;5049217;28;20295;-69
2023/12/20 05:09:44;;;;;;;6.77;1.87;;;6.40;99.90;;;;;;5048043;28;20338;-69
2023/12/20 05:12:11;;;;;;;6.27;1.80;;;6.50;99.90;;;;;;5048772;28;20299;-69
2023/12/20 05:14:39;;;;;;;6.43;1.53;;;6.40;99.90;;;;;;5048928;28;20299;-69
2023/12/20 05:17:06;;;;;;;8.97;1.97;;;6.40;99.90;;;;;;5048821;28;20312;-69
2023/12/20 05:19:35;;;;;;;6.43;1.73;;;6.30;99.90;;;;;;5048428;28;20579;-69
2023/12/20 05:22:01;;;;;;;7.07;2.00;;;6.30;99.90;;;;;;5029186;28;20594;-68
2023/12/20 05:24:28;;;;;;;5.67;1.43;;;6.30;99.90;;;;;;5033445;28;20751;-68
2023/12/20 05:26:55;;;;;;;4.23;1.60;;;6.20;99.90;;;;;;5048745;28;20721;-68
2023/12/20 05:29:22;;;;;;;5.87;1.90;;;6.20;99.90;;;;;;5048623;28;20263;-68
2023/12/20 05:31:51;;;;;;;9.67;2.00;;;6.20;99.90;;;;;;5047932;28;20291;-69
2023/12/20 05:34:18;;;;;;;6.07;1.80;;;6.10;99.90;;;;;;5047187;28;20318;-69
2023/12/20 05:36:44;;;;;;;4.87;1.93;;;6.10;99.90;;;;;;5035075;28;20307;-69
2023/12/20 05:39:11;;;;;;;7.83;1.73;;;6.10;99.90;;;;;;5045342;28;20319;-68
2023/12/20 05:41:38;;;;;;;3.83;1.60;;;6.00;99.90;;;;;;5042004;28;20243;-69
2023/12/20 05:44:05;;;;;;;9.50;2.10;;;6.00;99.90;;;;;;5043778;28;20319;-69
2023/12/20 05:46:32;;;;;;;5.60;1.60;;;6.00;99.90;;;;;;5039253;28;20319;-69
2023/12/20 05:49:01;;;;;;;4.30;1.93;;;6.00;99.90;;;;;;5047933;28;20236;-69
2023/12/20 05:51:27;;;;;;;9.70;2.00;;;5.90;99.90;;;;;;5044989;28;20231;-69
2023/12/20 05:53:54;;;;;;;4.73;1.50;;;5.90;99.90;;;;;;5047883;28;20299;-68
2023/12/20 05:56:22;;;;;;;6.20;1.80;;;5.90;99.90;;;;;;5047890;28;20208;-69
2023/12/20 05:58:48;;;;;;;6.43;1.80;;;5.80;99.90;;;;;;5048309;28;20207;-69
2023/12/20 06:01:16;;;;;;;2.93;1.47;;;5.90;99.90;;;;;;5034916;28;20236;-69
2023/12/20 06:03:44;;;;;;;3.90;1.60;;;5.80;99.90;;;;;;5027487;28;20262;-69
2023/12/20 06:06:12;;;;;;;5.60;1.60;;;5.80;99.90;;;;;;5027803;28;20291;-69
2023/12/20 06:08:39;;;;;;;5.23;1.47;;;5.80;99.90;;;;;;5027762;28;20242;-69
2023/12/20 06:11:06;;;;;;;10.10;1.70;;;5.80;99.90;;;;;;5041495;28;20322;-69
2023/12/20 06:13:33;;;;;;;10.13;1.80;;;5.70;99.90;;;;;;5047794;28;20303;-69
2023/12/20 06:16:00;;;;;;;4.90;1.83;;;5.70;99.90;;;;;;5047818;28;20208;-69
2023/12/20 06:18:27;;;;;;;5.60;1.50;;;5.60;99.90;;;;;;5047143;28;20604;-69
2023/12/20 06:20:54;;;;;;;5.80;1.73;;;5.70;99.90;;;;;;5035044;28;20223;-69
2023/12/20 06:23:22;;;;;;;2.97;1.67;;;5.70;99.90;;;;;;5027549;28;20215;-69
2023/12/20 06:25:49;;;;;;;4.43;1.70;;;5.70;99.90;;;;;;5027803;28;20232;-69
2023/12/20 06:28:15;;;;;;;5.97;1.60;;;5.70;99.90;;;;;;5034995;28;20641;-69
2023/12/20 06:30:42;;;;;;;7.93;1.97;;;5.70;99.90;;;;;;5037444;28;20314;-69
2023/12/20 06:33:11;;;;;;;4.80;1.70;;;5.70;99.90;;;;;;5047114;28;20287;-69
2023/12/20 06:35:38;;;;;;;6.50;1.80;;;5.70;99.90;;;;;;5047280;28;20208;-68
2023/12/20 06:38:04;;;;;;;5.27;1.67;;;5.60;99.90;;;;;;5046933;28;20753;-69
2023/12/20 06:40:32;;;;;;;6.63;1.70;;;5.60;99.90;;;;;;5043436;28;20626;-69
2023/12/20 06:42:59;;;;;;;6.07;1.73;;;5.70;99.90;;;;;;5046893;28;20243;-69
2023/12/20 06:45:26;;;;;;;4.23;2.07;;;5.60;99.90;;;;;;5047310;28;20212;-69
2023/12/20 06:47:54;;;;;;;5.57;1.93;;;5.70;99.90;;;;;;5047066;28;20228;-69
2023/12/20 06:50:21;;;;;;;6.73;2.00;;;5.70;99.90;;;;;;5039953;28;20312;-69
2023/12/20 06:52:48;;;;;;;6.07;1.80;;;5.70;99.90;;;;;;5026907;28;20692;-69
2023/12/20 06:55:17;;;;;;;5.87;1.90;;;5.80;99.90;;;;;;5026671;28;20215;-69
2023/12/20 06:57:45;;;;;;;8.90;1.90;;;5.80;99.90;;;;;;5027384;28;20235;-69
2023/12/20 07:00:13;;;;;;;4.60;1.60;;;5.80;99.90;;;;;;5032027;28;20632;-69
2023/12/20 07:02:40;;;;;;;4.17;2.10;;;5.80;99.90;;;;;;5046808;28;20218;-69
2023/12/20 07:05:08;;;;;;;4.17;1.67;;;5.80;99.90;;;;;;5046754;28;20236;-69
2023/12/20 07:07:34;;;;;;;9.10;2.37;;;5.80;99.90;;;;;;5046742;28;20303;-69
2023/12/20 07:10:01;;;;;;;4.17;1.90;;;5.80;99.90;;;;;;5045436;28;20265;-69
2023/12/20 07:12:28;;;;;;;3.57;2.10;;;5.80;99.90;;;;;;5026930;28;20209;-69
2023/12/20 07:14:57;;;;;;;7.50;2.17;;;5.80;99.90;;;;;;5026394;28;20213;-69
2023/12/20 07:17:23;;;;;;;4.43;2.27;;;5.80;99.90;;;;;;5026717;28;20228;-69
2023/12/20 07:19:50;;;;;;;6.63;2.43;;;5.80;99.90;;;;;;5028186;28;20208;-69
2023/12/20 07:22:17;;;;;;;7.40;1.90;;;5.90;99.90;;;;;;5046423;28;20672;-69
2023/12/20 07:24:44;;;;;;;6.77;1.83;;;5.90;99.90;;;;;;5045069;28;20299;-69
2023/12/20 07:27:11;;;;;;;5.20;1.60;;;5.90;99.90;;;;;;5046595;28;20287;-69
2023/12/20 07:29:38;;;;;;;5.17;2.10;;;5.80;99.90;;;;;;5046680;28;20234;-69
2023/12/20 07:32:08;;;;;;;6.73;2.07;;;5.90;99.90;;;;;;5046134;28;20322;-69
2023/12/20 07:34:35;;;;;;;7.53;2.23;;;5.90;99.90;;;;;;5028072;28;20203;-69
2023/12/20 07:37:02;;;;;;;8.83;2.27;;;5.90;99.90;;;;;;5046168;28;20242;-69
2023/12/20 07:39:29;;;;;;;6.03;1.87;;;5.90;99.90;;;;;;5046463;28;20244;-69
2023/12/20 07:41:55;;;;;;;5.87;1.70;;;5.90;99.90;;;;;;5043063;28;20258;-69
2023/12/20 07:44:22;;;;;;;5.73;1.97;;;5.90;99.90;;;;;;5030689;28;20554;-69
2023/12/20 07:46:49;;;;;;;6.77;2.10;;;5.90;99.90;;;;;;5038895;28;20267;-69
2023/12/20 07:49:18;;;;;;;5.67;2.00;;;5.90;99.90;;;;;;5036649;28;20242;-69
2023/12/20 07:51:45;;;;;;;8.83;2.20;;;5.90;99.90;;;;;;5032147;28;20327;-68
2023/12/20 07:54:11;;;;;;;2.27;1.30;;;5.90;99.90;;;;;;5026446;28;20320;-69
2023/12/20 07:56:39;;;;;;;3.67;1.47;;;5.90;99.90;;;;;;5026610;28;20211;-68
2023/12/20 07:59:06;;;;;;;4.50;1.53;;;6.00;99.90;;;;;;5026684;28;20236;-70
2023/12/20 08:01:33;;;;;;;4.10;1.50;;;6.00;99.90;;;;;;5029564;28;20212;-70
2023/12/20 08:04:00;;;;;;;6.67;1.50;;;6.00;99.90;;;;;;5045956;28;20286;-69
2023/12/20 08:06:28;;;;;;;3.73;1.50;;;6.00;99.90;;;;;;5046356;28;20240;-69
2023/12/20 08:08:55;;;;;;;7.13;1.73;;;6.00;99.90;;;;;;5045764;28;20246;-69
2023/12/20 08:11:22;;;;;;;6.73;1.93;;;6.00;99.90;;;;;;5044981;28;21763;-69
2023/12/20 08:13:49;;;;;;;2.70;1.40;;;6.00;99.90;;;;;;5046375;28;20295;-69
2023/12/20 08:16:17;;;;;;;5.43;1.60;;;6.00;99.90;;;;;;5029154;28;20320;-69
2023/12/20 08:18:44;;;;;;;3.70;1.90;;;6.00;99.90;;;;;;5026007;28;20677;-69
2023/12/20 08:21:11;;;;;;;4.90;2.03;;;6.00;99.90;;;;;;5041133;28;20239;-70
2023/12/20 08:23:39;;;;;;;7.37;1.60;;;6.00;99.90;;;;;;5030480;28;20203;-69
2023/12/20 08:26:06;;;;;;;6.43;1.83;;;6.00;99.90;;;;;;5046634;28;20299;-69
2023/12/20 08:28:33;;;;;;;3.37;1.60;;;6.10;99.90;;;;;;5049814;28;20204;-69
2023/12/20 08:31:00;;;;;;;4.93;1.87;;;6.10;99.90;;;;;;5048513;28;20231;-69
2023/12/20 08:33:27;;;;;;;6.30;2.00;;;6.10;99.90;;;;;;5030025;28;20204;-69
2023/12/20 08:35:54;;;;;;;7.07;1.80;;;6.10;99.90;;;;;;5029736;28;20237;-69
2023/12/20 08:38:21;;;;;;;6.27;1.87;;;6.10;99.90;;;;;;5031431;28;20259;-69
2023/12/20 08:40:49;;;;;;;4.70;1.80;;;6.20;99.90;;;;;;5043040;28;20335;-69
2023/12/20 08:43:16;;;;;;;7.10;2.10;;;6.20;99.90;;;;;;5047840;28;20690;-69
2023/12/20 08:45:43;;;;;;;6.97;1.73;;;6.20;99.90;;;;;;5036673;28;20284;-69
2023/12/20 08:48:10;;;;;;;4.73;1.30;;;6.30;99.90;;;;;;5029365;28;20300;-69
2023/12/20 08:50:37;;;;;;;2.40;1.33;;;6.30;99.90;;;;;;5029565;28;20235;-69
2023/12/20 08:53:04;;;;;;;5.07;1.83;;;6.30;99.90;;;;;;5030227;28;20745;-69
2023/12/20 08:55:31;;;;;;;6.33;1.60;;;6.30;99.90;;;;;;5029125;28;20304;-69
2023/12/20 08:57:59;;;;;;;6.03;2.07;;;6.30;99.90;;;;;;5029227;28;20243;-69
2023/12/20 09:00:27;;;;;;;5.47;2.30;;;6.40;99.90;;;;;;5029477;28;20248;-69
2023/12/20 09:02:55;;;;;;;10.40;3.30;;;6.40;99.90;;;;;;5030438;28;21138;-69
2023/12/20 09:05:22;;;;;;;10.23;3.17;;;6.40;99.90;;;;;;5028699;28;20251;-69
2023/12/20 09:07:49;;;;;;;5.33;1.90;;;6.40;99.90;;;;;;5028832;28;20778;-69
2023/12/20 09:10:16;;;;;;;6.37;1.90;;;6.50;99.90;;;;;;5031978;28;20306;-69
2023/12/20 09:12:43;;;;;;;4.63;1.63;;;6.50;99.90;;;;;;5036466;28;20295;-69
2023/12/20 09:15:11;;;;;;;6.53;2.03;;;6.50;99.90;;;;;;5029082;28;20208;-70
2023/12/20 09:17:38;;;;;;;5.20;1.77;;;6.50;99.90;;;;;;5045319;28;20254;-70
2023/12/20 09:20:07;;;;;;;3.13;1.87;;;6.50;99.90;;;;;;5048689;28;20208;-70
2023/12/20 09:22:34;;;;;;;3.83;1.70;;;6.60;99.90;;;;;;5038018;28;20703;-70
2023/12/20 09:25:01;;;;;;;4.47;1.70;;;6.60;99.90;;;;;;5028631;28;20664;-70
2023/12/20 09:27:28;;;;;;;5.43;2.43;;;6.60;99.90;;;;;;5033659;28;20231;-70
2023/12/20 09:29:55;;;;;;;5.77;1.60;;;6.60;99.90;;;;;;5048866;28;20295;-70
2023/12/20 09:32:23;;;;;;;4.70;1.53;;;6.60;99.90;;;;;;5044779;28;20338;-70
2023/12/20 09:34:50;;;;;;;5.57;1.50;;;6.60;99.90;;;;;;5043541;28;20295;-70
2023/12/20 09:37:17;;;;;;;4.87;1.60;;;6.70;99.90;;;;;;5039622;28;20197;-69
2023/12/20 09:39:44;;;;;;;4.50;1.50;;;6.70;99.90;;;;;;5039990;28;20224;-69
2023/12/20 09:42:18;;;;;;;6.77;1.73;;;6.70;99.90;;;;;;5043450;28;20223;-69
2023/12/20 09:44:45;;;;;;;4.77;1.60;;;6.70;99.90;;;;;;5037000;28;20276;-69
2023/12/20 09:47:12;;;;;;;6.70;1.70;;;6.70;99.90;;;;;;5033040;28;20269;-70
2023/12/20 09:49:42;;;;;;;10.37;1.93;;;6.70;99.90;;;;;;5036496;28;20237;-70
2023/12/20 09:52:10;;;;;;;6.50;1.67;;;6.70;99.90;;;;;;5037603;28;20224;-69
2023/12/20 09:54:37;;;;;;;7.20;1.80;;;6.70;99.90;;;;;;5039644;28;20296;-69
2023/12/20 09:57:05;;;;;;;4.93;1.90;;;6.70;99.90;;;;;;5046936;28;20207;-70
2023/12/20 09:59:32;;;;;;;4.07;1.90;;;6.70;99.90;;;;;;5048290;28;20291;-70
2023/12/20 10:02:03;;;;;;;7.17;2.13;;;6.70;99.90;;;;;;5047919;28;20640;-69
2023/12/20 10:04:33;;;;;;;4.10;1.87;;;6.80;99.90;;;;;;5044739;28;20224;-69
2023/12/20 10:07:04;;;;;;;10.27;2.20;;;6.80;99.90;;;;;;5027134;28;20208;-69
2023/12/20 10:09:33;;;;;;;4.10;2.17;;;6.80;99.90;;;;;;5026400;28;20328;-68
2023/12/20 10:12:00;;;;;;;6.17;2.03;;;6.80;99.90;;;;;;5043074;28;20239;-68
2023/12/20 10:14:27;;;;;;;6.17;2.17;;;6.80;99.90;;;;;;5040663;28;20808;-69
2023/12/20 10:16:55;;;;;;;3.83;1.70;;;6.80;99.90;;;;;;5045553;28;20319;-69
2023/12/20 10:19:22;;;;;;;4.47;1.83;;;6.80;99.90;;;;;;5044215;28;20200;-69
2023/12/20 10:21:49;;;;;;;4.77;2.27;;;6.80;99.90;;;;;;5041330;28;20325;-69
2023/12/20 10:24:19;;;;;;;4.77;1.40;;;6.80;99.90;;;;;;5045083;28;20242;-69
2023/12/20 10:26:46;;;;;;;7.53;1.73;;;6.80;99.90;;;;;;5044389;28;20296;-69
2023/12/20 10:29:13;;;;;;;5.83;2.03;;;6.80;99.90;;;;;;5045616;28;20674;-69
2023/12/20 10:31:40;;;;;;;5.03;2.00;;;6.90;99.90;;;;;;5035296;28;20315;-69
2023/12/20 10:34:07;;;;;;;4.20;1.87;;;6.90;99.90;;;;;;5025798;28;20213;-69
2023/12/20 10:36:36;;;;;;;5.07;1.87;;;6.90;99.90;;;;;;5062371;28;20262;-69
2023/12/20 10:39:05;;;;;;;7.57;2.40;;;6.90;99.90;;;;;;5040596;28;20307;-69
2023/12/20 10:41:35;;;;;;;6.63;2.17;;;6.90;99.90;;;;;;5033961;28;20265;-69
2023/12/20 10:44:04;;;;;;;3.97;1.87;;;6.90;99.90;;;;;;5045009;28;20714;-69
2023/12/20 10:46:32;;;;;;;5.73;2.07;;;6.90;99.90;;;;;;5045491;28;20204;-69
2023/12/20 10:49:00;;;;;;;3.97;1.83;;;7.00;99.90;;;;;;5045368;28;20234;-69
2023/12/20 10:51:28;;;;;;;7.40;2.00;;;7.00;99.90;;;;;;5037164;28;20240;-69
2023/12/20 10:53:56;;;;;;;5.87;1.73;;;7.00;99.90;;;;;;5025153;28;20957;-69
2023/12/20 10:56:24;;;;;;;9.60;2.30;;;7.00;99.90;;;;;;5025483;28;20694;-69
2023/12/20 10:58:53;;;;;;;4.73;1.70;;;7.00;99.90;;;;;;5025766;28;20327;-69
2023/12/20 11:01:21;;;;;;;4.63;1.90;;;7.00;99.90;;;;;;5032411;28;20273;-69
2023/12/20 11:03:50;;;;;;;5.23;2.07;;;7.00;99.90;;;;;;5045023;28;20286;-69
2023/12/20 11:06:30;;;;;;;7.93;1.97;;;7.00;99.90;;;;;;5044893;28;20311;-70
2023/12/20 11:09:09;;;;;;;4.93;2.07;;;6.90;99.90;;;;;;5044630;28;21026;-69
2023/12/20 11:11:44;;;;;;;4.03;1.73;;;6.90;99.90;;;;;;5043269;28;20231;-69
2023/12/20 11:14:18;;;;;;;9.13;1.93;;;6.90;99.90;;;;;;5043977;28;20212;-69
2023/12/20 11:16:46;;;;;;;4.60;2.07;;;6.90;99.90;;;;;;5044096;28;20722;-69
2023/12/20 11:19:14;;;;;;;3.80;2.07;;;6.90;99.90;;;;;;5044476;28;20253;-69
2023/12/20 11:21:41;;;;;;;4.17;1.97;;;6.90;99.90;;;;;;5032238;28;20299;-69
2023/12/20 11:24:08;;;;;;;7.33;1.87;;;6.90;99.90;;;;;;5024801;28;20215;-69
2023/12/20 11:26:35;;;;;;;5.03;2.20;;;6.90;99.90;;;;;;5024755;28;20251;-69
2023/12/20 11:29:34;;;;;;;7.33;2.50;;;6.90;99.90;;;;;;5041938;28;20641;-69
2023/12/20 11:32:26;;;;;;;8.40;2.23;;;6.90;99.90;;;;;;5034704;28;20270;-69
2023/12/20 11:34:55;;;;;;;6.57;1.70;;;6.90;99.90;;;;;;5044532;28;20974;-69
2023/12/20 11:37:22;;;;;;;6.47;1.90;;;6.90;99.90;;;;;;5043991;28;20291;-69
2023/12/20 11:39:56;;;;;;;6.97;1.93;;;6.90;99.90;;;;;;5044971;28;20227;-69
2023/12/20 11:42:23;;;;;;;6.93;2.20;;;7.00;99.90;;;;;;5031486;28;20300;-69
2023/12/20 11:44:51;;;;;;;4.00;1.73;;;7.00;99.90;;;;;;5036848;28;20295;-69
2023/12/20 11:47:20;;;;;;;5.63;2.27;;;7.00;99.90;;;;;;5039207;28;20208;-69
2023/12/20 11:49:48;;;;;;;5.70;1.83;;;6.90;99.90;;;;;;5024836;28;20313;-69
2023/12/20 11:52:15;;;;;;;6.10;1.77;;;7.00;99.90;;;;;;5023770;28;20232;-69
2023/12/20 11:54:42;;;;;;;6.03;1.90;;;7.00;99.90;;;;;;5023921;28;20270;-69
2023/12/20 11:57:10;;;;;;;7.50;1.97;;;7.00;99.90;;;;;;5024491;28;20319;-69
2023/12/20 11:59:37;;;;;;;5.60;2.00;;;7.00;99.90;;;;;;5024353;28;20643;-69
2023/12/20 12:02:06;;;;;;;2.57;1.60;;;6.90;99.90;;;;;;5045200;28;20580;-69
2023/12/20 12:04:33;;;;;;;5.47;1.80;;;7.00;99.90;;;;;;5045013;28;20288;-69
2023/12/20 12:07:00;;;;;;;3.83;1.67;;;7.00;99.90;;;;;;5047084;28;20311;-68
2023/12/20 12:09:27;;;;;;;3.63;1.40;;;7.00;99.90;;;;;;5041261;28;20776;-68
2023/12/20 12:11:54;;;;;;;3.83;1.50;;;7.00;99.90;;;;;;5044274;28;20503;-68
2023/12/20 12:14:21;;;;;;;5.77;2.00;;;7.10;99.90;;;;;;5047732;28;20785;-68
2023/12/20 12:16:49;;;;;;;5.37;1.90;;;7.00;99.90;;;;;;5049367;28;20238;-69
2023/12/20 12:19:28;;;;;;;6.57;1.93;;;7.10;99.90;;;;;;5030043;28;20558;-68
2023/12/20 12:22:07;;;;;;;4.17;1.80;;;7.10;99.90;;;;;;5037652;28;20200;-69
2023/12/20 12:24:34;;;;;;;4.93;1.80;;;7.10;99.90;;;;;;5035243;28;20197;-69
2023/12/20 12:27:00;;;;;;;3.50;1.80;;;7.00;99.90;;;;;;5039795;28;20206;-69
2023/12/20 12:29:28;;;;;;;5.97;1.60;;;6.90;99.90;;;;;;5038040;28;20204;-69
2023/12/20 12:31:55;;;;;;;2.97;1.80;;;6.80;99.90;;;;;;5037688;28;20277;-69
2023/12/20 12:34:22;;;;;;;2.77;1.97;;;6.70;99.90;;;;;;5044761;28;20667;-69
2023/12/20 12:36:51;;;;;;;4.80;1.93;;;6.70;99.90;;;;;;5040073;28;20917;-69
2023/12/20 12:39:19;;;;;;;4.83;2.20;;;6.60;99.90;;;;;;5043181;28;20259;-69
2023/12/20 12:41:46;;;;;;;3.87;1.90;;;6.60;99.90;;;;;;5039964;28;20297;-69
2023/12/20 12:44:12;;;;;;;8.40;2.20;;;6.50;99.90;;;;;;5043134;28;20288;-69
2023/12/20 12:46:39;;;;;;;4.53;2.20;;;6.50;99.90;;;;;;5037716;28;20572;-69
2023/12/20 12:49:06;;;;;;;5.23;2.40;;;6.50;99.90;;;;;;5043123;28;20231;-69
2023/12/20 12:51:33;;;;;;;4.97;2.03;;;6.50;99.90;;;;;;5039254;28;20925;-69
2023/12/20 12:54:01;;;;;;;4.23;2.37;;;6.60;99.90;;;;;;5039129;28;20954;-69
2023/12/20 12:56:28;;;;;;;4.83;2.10;;;6.60;99.90;;;;;;5037903;28;20274;-69
2023/12/20 12:58:55;;;;;;;5.00;2.30;;;6.60;99.90;;;;;;5038544;28;20236;-69